PADU

Details ICAO PADU (DUT)
Name UNALASKA
Region USA (Alaska)
Timezone America/Adak (UTC-9.0)
Plans Departing 74
Arriving 82
Stats Elevation 22 ft / 7 m (AMSL)
Location 53.899070° -166.545064°
Runways 1
Magnetic Variation 9.017° E
Sunrise 2018-06-20 14:35:24 UTC / 2018-06-20 05:35:24 Local
Sunset 2018-06-21 07:42:44 UTC / 2018-06-20 22:42:44 Local
Advertisement - Login to hide

Runways

ID Width Length Bearing (true) Bearing (mag) Surface Threshold Offset Overrun Length
12 100 ft / 30 m 3,895 ft / 1,187 m 135.64° 126.62° Asphalt 100 ft / 30 m 0 ft / 0 m
30 100 ft / 30 m 3,895 ft / 1,187 m 315.65° 306.63° Asphalt 101 ft / 31 m 0 ft / 0 m

Map

Weather


0- 5 10 15 20 25 30 35+ Temperature / ° C

Clouds and Precipitation
Forecast for 2018-06-21 00:00 UTC. Updated 35 minutes ago

Ground ~20,000 ft ~40,000 ft Winds

METAR

PADU 202203Z 21008KT 10SM BKN030 BKN048 09/03 A2982 RMK AO2 MH

TAF

TAF PADU 201747Z 2018/2118 21015KT P6SM FEW050 OVC070 FM202200 25008KT P6SM SCT025 BKN040 TEMPO 2022/2102 BKN025 FM210200 28008KT P6SM VCSH SCT015 BKN025 OVC040

Frequencies

Recorded 125.80 MHz AWOS 3
Unicom 122.60 MHz CTAF
Warning: Do not use this data for real-world aviation or navigation. No guarantee of current accuracy is given.